METAR Data
IDs: Format: Raw Decoded Include TAF

Data at: 0232 UTC 25 Jan 2020

METAR for:KDEH (Decorah Muni, IA, US)
Text:KDEH 250215Z AUTO 34008KT 9SM OVC005 00/00 A2987 RMK AO2
Temperature: 0.0°C ( 32°F)
Dewpoint: 0.0°C ( 32°F) [RH = 100%]
Pressure (altimeter):29.87 inches Hg (1011.6 mb)
Winds:from the NNW (340 degrees) at 9 MPH (8 knots; 4.1 m/s)
Visibility: 9 sm ( 14 km)
Ceiling:500 feet AGL
Clouds: overcast cloud deck at 500 feet AGL
QC Flag:automated observation with no human augmentation